Time;durP1;ratioP1;P1;durP2;ratioP2;P2;SDS_P1;SDS_P2;PMS_P1;PMS_P2;Temp;Humidity;BMP_temperature;BMP_pressure;BME280_temperature;BME280_humidity;BME280_pressure;Samples;Min_cycle;Max_cycle;Signal;HPM_P1;HPM_P2
2022/12/12 00:00:50;;;;;;;57.72;21.40;;;-0.40;99.90;;;;;;5067503;28;20044;-56
2022/12/12 00:03:16;;;;;;;54.42;20.85;;;-0.40;99.90;;;;;;5067004;28;20129;-56
2022/12/12 00:05:41;;;;;;;59.50;20.65;;;-0.40;99.90;;;;;;5067147;28;20155;-56
2022/12/12 00:08:07;;;;;;;58.78;21.63;;;-0.40;99.90;;;;;;5048826;28;20416;-56
2022/12/12 00:10:34;;;;;;;52.67;21.92;;;-0.50;99.90;;;;;;5048776;28;20052;-56
2022/12/12 00:13:00;;;;;;;62.30;21.83;;;-0.50;99.90;;;;;;5049433;28;20109;-56
2022/12/12 00:15:26;;;;;;;67.03;22.02;;;-0.40;99.90;;;;;;5067414;28;20043;-57
2022/12/12 00:17:52;;;;;;;60.65;21.90;;;-0.40;99.90;;;;;;5048997;28;20044;-57
2022/12/12 00:20:18;;;;;;;56.17;22.40;;;-0.40;99.90;;;;;;5067733;28;20127;-56
2022/12/12 00:22:44;;;;;;;65.63;21.80;;;-0.40;99.90;;;;;;5071174;28;20165;-56
2022/12/12 00:25:10;;;;;;;57.45;21.52;;;-0.40;99.90;;;;;;5070764;28;20055;-57
2022/12/12 00:27:36;;;;;;;57.50;21.65;;;-0.20;99.90;;;;;;5070859;28;20041;-56
2022/12/12 00:30:02;;;;;;;53.97;20.52;;;-0.50;99.90;;;;;;5052492;28;20044;-56
2022/12/12 00:32:27;;;;;;;57.17;20.67;;;-0.50;99.90;;;;;;5070366;28;20032;-56
2022/12/12 00:34:53;;;;;;;48.67;19.98;;;-0.50;99.90;;;;;;5070373;28;20091;-56
2022/12/12 00:37:19;;;;;;;53.90;20.58;;;-0.40;99.90;;;;;;5070689;28;20055;-56
2022/12/12 00:39:45;;;;;;;52.70;20.05;;;-0.50;99.90;;;;;;5071185;28;20122;-56
2022/12/12 00:42:10;;;;;;;51.53;20.95;;;-0.40;99.90;;;;;;5052549;28;20049;-56
2022/12/12 00:44:36;;;;;;;55.40;20.63;;;-0.50;99.90;;;;;;5052858;28;20048;-56
2022/12/12 00:47:02;;;;;;;51.47;18.90;;;-0.50;99.90;;;;;;5053118;28;20528;-56
2022/12/12 00:49:27;;;;;;;49.85;19.42;;;-0.50;99.90;;;;;;5070865;28;20382;-56
2022/12/12 00:51:53;;;;;;;49.83;19.55;;;-0.50;99.90;;;;;;5071197;28;20044;-56
2022/12/12 00:54:19;;;;;;;52.65;19.17;;;-0.50;99.90;;;;;;5070587;28;20040;-57
2022/12/12 00:56:44;;;;;;;51.38;19.38;;;-0.50;99.90;;;;;;5053210;28;20040;-55
2022/12/12 00:59:10;;;;;;;58.30;19.55;;;-0.50;99.90;;;;;;5070994;28;20044;-55
2022/12/12 01:01:36;;;;;;;52.58;19.50;;;-0.50;99.90;;;;;;5052474;28;20524;-56
2022/12/12 01:04:03;;;;;;;51.40;21.23;;;-0.50;99.90;;;;;;5052218;28;20052;-56
2022/12/12 01:06:29;;;;;;;50.38;20.25;;;-0.50;99.90;;;;;;5070079;28;20044;-56
2022/12/12 01:08:55;;;;;;;52.00;19.58;;;-0.50;99.90;;;;;;5070181;28;20489;-56
2022/12/12 01:11:21;;;;;;;51.40;19.00;;;-0.50;99.90;;;;;;5069887;28;20119;-56
2022/12/12 01:13:49;;;;;;;49.83;19.75;;;-0.50;99.90;;;;;;5035582;28;20051;-56
2022/12/12 01:16:15;;;;;;;49.83;20.35;;;-0.50;99.90;;;;;;5069881;28;20112;-57
2022/12/12 01:18:41;;;;;;;45.70;19.27;;;-0.50;99.90;;;;;;5069709;28;20135;-56
2022/12/12 01:21:09;;;;;;;49.42;19.45;;;-0.50;99.90;;;;;;5068716;28;20051;-56
2022/12/12 01:23:34;;;;;;;55.42;19.67;;;-0.50;99.90;;;;;;5069861;28;20044;-56
2022/12/12 01:26:02;;;;;;;54.83;19.58;;;-0.50;99.90;;;;;;5051594;28;20490;-56
2022/12/12 01:28:28;;;;;;;55.83;19.05;;;-0.50;99.90;;;;;;5051630;28;20079;-56
2022/12/12 01:30:54;;;;;;;56.97;20.27;;;-0.50;99.90;;;;;;5068869;28;20408;-56
2022/12/12 01:33:20;;;;;;;52.95;20.23;;;-0.50;99.90;;;;;;5069780;28;20044;-56
2022/12/12 01:35:45;;;;;;;48.95;18.50;;;-0.50;99.90;;;;;;5051236;28;20675;-56
2022/12/12 01:38:11;;;;;;;45.63;19.70;;;-0.50;99.90;;;;;;5069632;28;20087;-56
2022/12/12 01:40:36;;;;;;;54.15;22.85;;;-0.50;99.90;;;;;;5035165;28;20047;-56
2022/12/12 01:43:12;;;;;;;59.97;21.48;;;-0.50;99.90;;;;;;5051353;28;20049;-56
2022/12/12 01:45:56;;;;;;;53.97;20.42;;;-0.50;99.90;;;;;;5051303;28;20060;-56
2022/12/12 01:48:27;;;;;;;54.30;21.67;;;-0.50;99.90;;;;;;5051159;28;20158;-56
2022/12/12 01:50:53;;;;;;;58.75;20.80;;;-0.50;99.90;;;;;;5051501;28;20044;-56
2022/12/12 01:53:20;;;;;;;48.25;20.83;;;-0.60;99.90;;;;;;5051679;28;20052;-56
2022/12/12 01:55:47;;;;;;;52.28;20.83;;;-0.50;99.90;;;;;;5051261;28;20462;-56
2022/12/12 01:58:14;;;;;;;55.25;20.63;;;-0.50;99.90;;;;;;5069679;28;20048;-56
2022/12/12 02:00:40;;;;;;;57.15;20.90;;;-0.60;99.90;;;;;;5050741;28;20538;-56
2022/12/12 02:03:06;;;;;;;51.85;20.60;;;-0.60;99.90;;;;;;5068645;28;20036;-56
2022/12/12 02:05:43;;;;;;;54.72;21.20;;;-0.60;99.90;;;;;;5050654;28;20051;-56
2022/12/12 02:08:09;;;;;;;52.38;20.50;;;-0.50;99.90;;;;;;5050955;28;20052;-56
2022/12/12 02:10:35;;;;;;;56.55;20.58;;;-0.60;99.90;;;;;;5050996;28;20059;-57
2022/12/12 02:13:14;;;;;;;56.25;22.33;;;-0.60;99.90;;;;;;5069060;28;20048;-56
2022/12/12 02:16:00;;;;;;;58.55;21.35;;;-0.50;99.90;;;;;;5068950;28;20051;-56
2022/12/12 02:18:54;;;;;;;63.70;21.70;;;-0.60;99.90;;;;;;5051456;28;20462;-56
2022/12/12 02:21:54;;;;;;;64.07;22.67;;;-0.50;99.90;;;;;;5069190;28;20087;-56
2022/12/12 02:24:49;;;;;;;54.03;20.80;;;-0.50;99.90;;;;;;5050729;28;20052;-56
2022/12/12 02:27:20;;;;;;;56.35;20.95;;;-0.50;99.90;;;;;;5068436;28;20055;-56
2022/12/12 02:30:06;;;;;;;56.05;20.38;;;-0.50;99.90;;;;;;5068084;28;20214;-56
2022/12/12 02:32:46;;;;;;;58.63;21.40;;;-0.50;99.90;;;;;;5067248;28;20474;-56
2022/12/12 02:35:24;;;;;;;58.65;20.73;;;-0.60;99.90;;;;;;5067976;28;20115;-56
2022/12/12 02:38:17;;;;;;;50.97;19.80;;;-0.50;99.90;;;;;;5068225;28;20040;-56
2022/12/12 02:41:16;;;;;;;54.53;21.13;;;-0.50;99.90;;;;;;5050753;28;20087;-56
2022/12/12 02:44:05;;;;;;;58.35;20.75;;;-0.50;99.90;;;;;;5050165;28;20119;-56
2022/12/12 02:46:56;;;;;;;65.07;22.27;;;-0.50;99.90;;;;;;5051341;28;20142;-56
2022/12/12 02:49:27;;;;;;;53.88;20.05;;;-0.50;99.90;;;;;;5051519;28;20137;-56
2022/12/12 02:51:54;;;;;;;52.83;20.97;;;-0.60;99.90;;;;;;5068684;28;20048;-56
2022/12/12 02:54:21;;;;;;;52.42;19.70;;;-0.60;99.90;;;;;;5051471;28;20040;-56
2022/12/12 02:56:49;;;;;;;49.72;20.05;;;-0.60;99.90;;;;;;5069002;28;20417;-56
2022/12/12 02:59:36;;;;;;;38.33;18.02;;;0.10;99.90;;;;;;5051314;28;20052;-55
2022/12/12 03:02:35;;;;;;;43.83;18.48;;;-0.60;99.90;;;;;;5066661;28;20123;-56
2022/12/12 03:08:38;;;;;;;45.65;18.88;;;-0.60;99.90;;;;;;5067989;28;20056;-56
2022/12/12 03:11:11;;;;;;;43.97;17.02;;;-0.60;99.90;;;;;;5068307;28;20040;-56
2022/12/12 03:14:02;;;;;;;41.67;18.45;;;-0.60;99.90;;;;;;5049996;28;20051;-56
2022/12/12 03:16:29;;;;;;;47.15;18.77;;;-0.60;99.90;;;;;;5050121;28;20393;-56
2022/12/12 03:19:08;;;;;;;35.70;16.15;;;-0.60;99.90;;;;;;5049678;28;20131;-56
2022/12/12 03:21:55;;;;;;;43.60;18.15;;;-0.60;99.90;;;;;;5068196;28;20040;-56
2022/12/12 03:24:28;;;;;;;41.80;17.98;;;-0.60;99.90;;;;;;5049875;28;20126;-56
2022/12/12 03:26:59;;;;;;;45.13;18.63;;;-0.60;99.90;;;;;;5049475;28;20048;-55
2022/12/12 03:29:31;;;;;;;50.47;18.35;;;-0.60;99.90;;;;;;5067465;28;20487;-56
2022/12/12 03:32:10;;;;;;;44.75;19.30;;;-0.60;99.90;;;;;;5067470;28;20033;-55
2022/12/12 03:34:45;;;;;;;36.78;18.05;;;-0.60;99.90;;;;;;5048640;28;20056;-56
2022/12/12 03:37:26;;;;;;;40.78;18.35;;;-0.60;99.90;;;;;;5067247;28;20037;-55
2022/12/12 03:39:58;;;;;;;45.75;19.85;;;-0.60;99.90;;;;;;5049236;28;20051;-56
2022/12/12 03:42:33;;;;;;;42.40;17.90;;;-0.60;99.90;;;;;;5049038;28;20049;-56
2022/12/12 03:45:17;;;;;;;43.17;18.48;;;-0.60;99.90;;;;;;5049221;28;20092;-56
2022/12/12 03:47:54;;;;;;;50.03;18.17;;;-0.60;99.90;;;;;;5067636;28;20044;-56
2022/12/12 03:50:25;;;;;;;42.05;17.73;;;-0.60;99.90;;;;;;5067527;28;20109;-56
2022/12/12 03:52:59;;;;;;;37.40;16.63;;;-0.60;99.90;;;;;;5049314;28;20209;-56
2022/12/12 03:55:47;;;;;;;39.28;17.38;;;-0.60;99.90;;;;;;5070360;28;20040;-56
2022/12/12 03:58:50;;;;;;;40.78;18.27;;;-0.60;99.90;;;;;;5071541;28;20052;-55
2022/12/12 04:01:19;;;;;;;42.42;17.75;;;-0.60;99.90;;;;;;5058961;28;20079;-55
2022/12/12 04:03:58;;;;;;;37.65;17.42;;;-0.60;99.90;;;;;;5071430;28;20401;-55
2022/12/12 04:06:34;;;;;;;36.30;18.00;;;-0.60;99.90;;;;;;5071017;28;20048;-56
2022/12/12 04:15:48;;;;;;;39.97;16.63;;;-0.60;99.90;;;;;;5070817;28;20059;-55
2022/12/12 04:18:23;;;;;;;42.47;18.25;;;-0.70;99.90;;;;;;5071062;28;20053;-56
2022/12/12 04:24:04;;;;;;;33.08;15.27;;;-0.70;99.90;;;;;;5070858;28;20149;-55
2022/12/12 04:27:11;;;;;;;35.90;16.98;;;-0.70;99.90;;;;;;5052905;28;20045;-56
2022/12/12 04:29:49;;;;;;;33.78;15.93;;;-0.70;99.90;;;;;;5062518;28;20695;-56
2022/12/12 04:32:31;;;;;;;36.42;16.02;;;-0.70;99.90;;;;;;5052491;28;20087;-56
2022/12/12 04:35:12;;;;;;;31.50;16.57;;;-0.70;99.90;;;;;;5069731;28;20094;-56
2022/12/12 04:37:59;;;;;;;33.08;15.82;;;-0.70;99.90;;;;;;5070194;28;20532;-56
2022/12/12 04:40:31;;;;;;;38.35;17.95;;;-0.70;99.90;;;;;;5070338;28;20511;-56
2022/12/12 04:42:59;;;;;;;;;;;-0.70;99.90;;;;;;5070446;28;20449;-56
2022/12/12 04:45:30;;;;;;;41.50;18.80;;;-0.70;99.90;;;;;;5070575;28;19969;-56
2022/12/12 04:47:58;;;;;;;38.20;16.10;;;-0.70;99.90;;;;;;5052275;28;20060;-55
2022/12/12 04:50:27;;;;;;;33.13;16.02;;;-0.70;99.90;;;;;;5070561;28;20079;-56
2022/12/12 04:52:55;;;;;;;36.10;17.55;;;-0.70;99.90;;;;;;5070372;28;20044;-56
2022/12/12 04:55:30;;;;;;;38.80;17.20;;;-0.70;99.90;;;;;;5052437;28;20371;-56
2022/12/12 04:57:55;;;;;;;33.80;16.13;;;-0.70;99.90;;;;;;5070350;28;20661;-56
2022/12/12 05:00:23;;;;;;;33.03;15.27;;;-0.70;99.90;;;;;;5052411;28;20055;-56
2022/12/12 05:03:19;;;;;;;35.80;16.05;;;-0.70;99.90;;;;;;5051899;28;20041;-53
2022/12/12 05:05:59;;;;;;;33.05;15.85;;;-0.70;99.90;;;;;;5069509;28;20501;-56
2022/12/12 05:08:43;;;;;;;32.65;15.43;;;-0.70;99.90;;;;;;5052099;28;20078;-56
2022/12/12 05:11:09;;;;;;;36.30;15.18;;;-0.70;99.90;;;;;;5069606;28;20139;-56
2022/12/12 05:13:39;;;;;;;34.67;15.18;;;-0.70;99.90;;;;;;5069639;28;20079;-56
2022/12/12 05:16:48;;;;;;;34.78;15.32;;;-0.70;99.90;;;;;;5069112;28;20047;-56
2022/12/12 05:19:13;;;;;;;33.88;16.67;;;-0.70;99.90;;;;;;5046313;28;20079;-56
2022/12/12 05:21:39;;;;;;;33.13;15.43;;;-0.70;99.90;;;;;;5046712;28;20482;-56
2022/12/12 05:24:05;;;;;;;31.80;15.48;;;-0.70;99.90;;;;;;5057332;28;20053;-56
2022/12/12 05:26:32;;;;;;;38.15;16.02;;;-0.70;99.90;;;;;;5069731;28;20048;-56
2022/12/12 05:29:00;;;;;;;35.75;17.90;;;-0.70;99.90;;;;;;5051344;28;20044;-56
2022/12/12 05:31:26;;;;;;;32.08;15.32;;;-0.70;99.90;;;;;;5051135;28;20052;-56
2022/12/12 05:33:52;;;;;;;32.20;16.23;;;-0.70;99.90;;;;;;5069042;28;20040;-56
2022/12/12 05:36:18;;;;;;;33.38;16.20;;;-0.70;99.90;;;;;;5051197;28;20048;-56
2022/12/12 05:38:44;;;;;;;36.28;16.13;;;-0.70;99.90;;;;;;5051716;28;20051;-56
2022/12/12 05:41:10;;;;;;;30.70;15.30;;;-0.70;99.90;;;;;;5069221;28;20129;-56
2022/12/12 05:43:36;;;;;;;30.92;16.50;;;-0.70;99.90;;;;;;5069021;28;20048;-56
2022/12/12 05:46:02;;;;;;;29.98;15.07;;;-0.70;99.90;;;;;;5069466;28;20529;-56
2022/12/12 05:48:28;;;;;;;30.88;16.60;;;-0.70;99.90;;;;;;5069282;28;20051;-56
2022/12/12 05:50:54;;;;;;;33.30;16.17;;;-0.70;99.90;;;;;;5068961;28;20045;-54
2022/12/12 05:53:20;;;;;;;31.10;14.93;;;-0.70;99.90;;;;;;5068839;28;20071;-56
2022/12/12 05:55:49;;;;;;;32.25;15.73;;;-0.70;99.90;;;;;;5051054;28;20128;-56
2022/12/12 05:58:15;;;;;;;31.63;15.10;;;-0.70;99.90;;;;;;5051359;28;20178;-55
2022/12/12 06:00:40;;;;;;;33.72;15.18;;;-0.70;99.90;;;;;;5051396;28;20127;-56
2022/12/12 06:03:06;;;;;;;34.17;15.65;;;-0.70;99.90;;;;;;5051056;28;20044;-55
2022/12/12 06:05:32;;;;;;;32.90;15.35;;;-0.70;99.90;;;;;;5050649;28;20051;-56
2022/12/12 06:07:57;;;;;;;28.83;14.43;;;-0.70;99.90;;;;;;5069088;28;20053;-56
2022/12/12 06:10:23;;;;;;;38.13;16.63;;;-0.70;99.90;;;;;;5069088;28;20074;-56
2022/12/12 06:12:49;;;;;;;30.23;15.23;;;-0.70;99.90;;;;;;5069150;28;20436;-56
2022/12/12 06:15:14;;;;;;;28.73;15.73;;;-0.70;99.90;;;;;;5068781;28;20036;-56
2022/12/12 06:17:40;;;;;;;28.60;15.25;;;-0.80;99.90;;;;;;5067922;28;20093;-56
2022/12/12 06:20:06;;;;;;;31.02;15.20;;;-0.70;99.90;;;;;;5050855;28;20055;-56
2022/12/12 06:22:34;;;;;;;29.40;14.43;;;-0.70;99.90;;;;;;5068316;28;20044;-55
2022/12/12 06:25:00;;;;;;;32.13;15.77;;;-0.70;99.90;;;;;;5068816;28;20044;-55
2022/12/12 06:27:26;;;;;;;28.38;14.05;;;-0.70;99.90;;;;;;5067913;28;20055;-55
2022/12/12 06:29:51;;;;;;;29.48;15.55;;;-0.70;99.90;;;;;;5068341;28;20119;-55
2022/12/12 06:32:17;;;;;;;28.90;14.00;;;-0.70;99.90;;;;;;5068035;28;20086;-56
2022/12/12 06:34:43;;;;;;;29.90;14.40;;;-0.70;99.90;;;;;;5067593;28;20603;-56
2022/12/12 06:37:09;;;;;;;26.60;14.15;;;-0.80;99.90;;;;;;5049899;28;20067;-55
2022/12/12 06:39:36;;;;;;;31.42;15.13;;;-0.80;99.90;;;;;;5068273;28;20049;-55
2022/12/12 06:42:02;;;;;;;32.28;15.25;;;-0.80;99.90;;;;;;5068236;28;20049;-54
2022/12/12 06:44:28;;;;;;;27.88;14.07;;;-0.80;99.90;;;;;;5067958;28;20093;-56
2022/12/12 06:46:54;;;;;;;27.88;14.75;;;-0.80;99.90;;;;;;5049928;28;20131;-55
2022/12/12 06:49:20;;;;;;;25.98;13.07;;;-0.70;99.90;;;;;;5067615;28;20049;-56
2022/12/12 06:51:47;;;;;;;26.05;15.55;;;-0.80;99.90;;;;;;5049877;28;20045;-54
2022/12/12 06:54:16;;;;;;;28.35;14.02;;;-0.80;99.90;;;;;;5067582;28;20044;-55
2022/12/12 06:56:42;;;;;;;30.27;14.73;;;-0.70;99.90;;;;;;5068082;28;20048;-56
2022/12/12 06:59:12;;;;;;;26.65;13.65;;;-0.80;99.90;;;;;;5067911;28;20045;-54
2022/12/12 07:01:38;;;;;;;31.13;14.80;;;-0.80;99.90;;;;;;5067627;28;20482;-55
2022/12/12 07:04:04;;;;;;;29.90;14.50;;;-0.80;99.90;;;;;;5067326;28;20119;-55
2022/12/12 07:06:30;;;;;;;27.60;13.80;;;-0.80;99.90;;;;;;5067343;28;20055;-57
2022/12/12 07:08:58;;;;;;;26.67;13.25;;;-0.80;99.90;;;;;;5049506;28;20048;-56
2022/12/12 07:11:25;;;;;;;29.73;14.77;;;-0.80;99.90;;;;;;5067328;28;20040;-56
2022/12/12 07:13:52;;;;;;;27.27;13.32;;;-0.80;99.90;;;;;;5067977;28;20044;-56
2022/12/12 07:16:18;;;;;;;27.42;13.05;;;-0.90;99.90;;;;;;5048993;28;20048;-56
2022/12/12 07:18:44;;;;;;;30.23;15.32;;;-0.80;99.90;;;;;;5067905;28;20064;-55
2022/12/12 07:21:13;;;;;;;27.30;14.05;;;-0.80;99.90;;;;;;5050219;28;20102;-55
2022/12/12 07:23:39;;;;;;;25.45;13.07;;;-0.80;99.90;;;;;;5068122;28;20115;-55
2022/12/12 07:26:17;;;;;;;28.38;13.57;;;-0.80;99.90;;;;;;5050167;28;20435;-54
2022/12/12 07:28:42;;;;;;;25.65;13.02;;;-0.80;99.90;;;;;;5049710;28;20044;-56
2022/12/12 07:31:11;;;;;;;27.88;13.43;;;-0.80;99.90;;;;;;5067548;28;20090;-56
2022/12/12 07:33:37;;;;;;;30.38;14.85;;;-0.80;99.90;;;;;;5049445;28;20036;-56
2022/12/12 07:36:04;;;;;;;27.23;14.63;;;-0.80;99.90;;;;;;5067090;28;20071;-54
2022/12/12 07:38:30;;;;;;;28.05;14.05;;;-0.80;99.90;;;;;;5067584;28;20052;-55
2022/12/12 07:41:06;;;;;;;26.35;14.20;;;-0.80;99.90;;;;;;5049296;28;20055;-55
2022/12/12 07:43:34;;;;;;;27.25;13.75;;;-0.80;99.90;;;;;;5066838;28;20080;-55
2022/12/12 07:45:59;;;;;;;26.48;13.48;;;-0.80;99.90;;;;;;5066975;28;20459;-54
2022/12/12 07:48:27;;;;;;;28.80;13.18;;;-0.80;99.90;;;;;;5067183;28;20120;-56
2022/12/12 07:50:53;;;;;;;29.90;14.70;;;-1.40;99.90;;;;;;5067220;28;20045;-55
2022/12/12 07:53:18;;;;;;;23.00;12.50;;;-0.90;99.90;;;;;;5067326;28;20048;-56
2022/12/12 07:55:44;;;;;;;25.23;13.85;;;-1.00;99.90;;;;;;5066996;28;20446;-56
2022/12/12 07:58:10;;;;;;;25.92;13.43;;;-1.10;99.90;;;;;;5048747;28;20052;-55
2022/12/12 08:00:36;;;;;;;25.17;12.85;;;-1.10;99.90;;;;;;5067699;28;20040;-55
2022/12/12 08:03:01;;;;;;;24.45;12.05;;;-1.20;99.90;;;;;;5049055;28;20459;-54
2022/12/12 08:05:27;;;;;;;30.50;14.27;;;-1.30;99.90;;;;;;5048968;28;20429;-56
2022/12/12 08:07:53;;;;;;;27.90;14.18;;;-1.30;99.90;;;;;;5067410;28;20048;-54
2022/12/12 08:10:19;;;;;;;26.98;13.50;;;-1.30;99.90;;;;;;5067314;28;20059;-56
2022/12/12 08:12:45;;;;;;;24.27;12.32;;;-1.30;99.90;;;;;;5066698;28;20040;-55
2022/12/12 08:15:15;;;;;;;25.48;13.60;;;-1.30;99.90;;;;;;5066822;28;20052;-53
2022/12/12 08:17:41;;;;;;;27.42;12.88;;;-1.30;99.90;;;;;;5066233;28;20267;-56
2022/12/12 08:20:08;;;;;;;31.67;14.20;;;-1.30;99.90;;;;;;5047927;28;20056;-56
2022/12/12 08:22:33;;;;;;;27.80;13.98;;;-1.30;99.90;;;;;;5047841;28;20048;-55
2022/12/12 08:24:59;;;;;;;25.55;14.35;;;-1.30;99.90;;;;;;5048120;28;20051;-54
2022/12/12 08:27:25;;;;;;;28.77;13.65;;;-1.20;99.90;;;;;;5066884;28;20049;-55
2022/12/12 08:29:53;;;;;;;27.30;14.63;;;-1.30;99.90;;;;;;5066405;28;20056;-55
2022/12/12 08:32:19;;;;;;;27.08;13.98;;;-1.20;99.90;;;;;;5066627;28;20046;-55
2022/12/12 08:34:46;;;;;;;27.80;14.80;;;-1.30;99.90;;;;;;5066680;28;20751;-54
2022/12/12 08:37:12;;;;;;;29.45;15.50;;;-1.30;99.90;;;;;;5065259;28;20044;-55
2022/12/12 08:39:38;;;;;;;32.03;17.13;;;-1.40;99.90;;;;;;5065916;28;20044;-56
2022/12/12 08:42:03;;;;;;;31.92;16.55;;;-1.50;99.90;;;;;;5068361;28;20136;-55
2022/12/12 08:44:29;;;;;;;31.17;16.58;;;-1.50;99.90;;;;;;5069958;28;20056;-55
2022/12/12 08:46:55;;;;;;;35.85;17.05;;;-1.60;99.90;;;;;;5069608;28;20056;-55
2022/12/12 08:49:20;;;;;;;31.33;16.10;;;-1.60;99.90;;;;;;5051931;28;20149;-55
2022/12/12 08:51:46;;;;;;;31.15;16.08;;;-1.60;99.90;;;;;;5051863;28;20048;-56
2022/12/12 08:54:12;;;;;;;37.28;18.08;;;-1.60;99.90;;;;;;5069554;28;20044;-55
2022/12/12 08:56:39;;;;;;;35.45;18.02;;;-1.60;99.90;;;;;;5051742;28;20048;-54
2022/12/12 08:59:04;;;;;;;36.50;17.83;;;-1.60;99.90;;;;;;5069763;28;20679;-55
2022/12/12 09:01:30;;;;;;;36.63;18.35;;;-1.60;99.90;;;;;;5069441;28;20128;-55
2022/12/12 09:03:56;;;;;;;35.97;19.58;;;-1.60;99.90;;;;;;5069368;28;20041;-55
2022/12/12 09:06:24;;;;;;;42.05;19.80;;;-1.60;99.90;;;;;;5069439;28;20087;-56
2022/12/12 09:08:50;;;;;;;38.50;20.08;;;-1.50;99.90;;;;;;5051379;28;20448;-55
2022/12/12 09:11:17;;;;;;;43.28;20.23;;;-1.50;99.90;;;;;;5068904;28;20044;-56
2022/12/12 09:13:43;;;;;;;42.50;18.85;;;-1.50;99.90;;;;;;5051392;28;20045;-55
2022/12/12 09:16:10;;;;;;;41.03;19.98;;;-1.50;99.90;;;;;;5069240;28;20032;-56
2022/12/12 09:18:37;;;;;;;41.45;20.33;;;-1.40;99.90;;;;;;5051642;28;20071;-56
2022/12/12 09:21:03;;;;;;;44.38;21.90;;;-1.40;99.90;;;;;;5051834;28;20071;-55
2022/12/12 09:23:29;;;;;;;44.95;21.75;;;-1.20;99.90;;;;;;5069265;28;20040;-56
2022/12/12 09:25:55;;;;;;;44.17;20.40;;;-1.40;99.90;;;;;;5069153;28;20079;-55
2022/12/12 09:28:23;;;;;;;47.17;20.45;;;-1.40;99.90;;;;;;5051222;28;20055;-56
2022/12/12 09:30:49;;;;;;;50.20;21.75;;;-1.30;99.90;;;;;;5069039;28;20126;-56
2022/12/12 09:33:16;;;;;;;45.63;22.08;;;-1.20;99.90;;;;;;5051418;28;20062;-56
2022/12/12 09:35:42;;;;;;;45.03;21.55;;;-1.10;99.90;;;;;;5050923;28;20048;-56
2022/12/12 09:38:09;;;;;;;50.45;22.38;;;-1.00;99.90;;;;;;5051505;28;20113;-56
2022/12/12 09:40:41;;;;;;;48.42;22.23;;;-0.90;99.90;;;;;;5050746;28;20564;-55
2022/12/12 09:43:12;;;;;;;;;;;-0.60;99.90;;;;;;5050968;28;20542;-53
2022/12/12 09:45:39;;;;;;;51.05;21.25;;;-0.80;99.90;;;;;;5038781;28;19978;-55
2022/12/12 09:48:06;;;;;;;52.25;23.70;;;-0.80;99.90;;;;;;5028827;28;20068;-55
2022/12/12 09:50:36;;;;;;;47.28;21.92;;;-0.80;99.90;;;;;;5047307;28;20413;-55
2022/12/12 09:53:08;;;;;;;44.90;21.17;;;-0.70;99.90;;;;;;5045057;28;20130;-56
2022/12/12 09:55:44;;;;;;;47.30;23.02;;;-0.60;99.90;;;;;;5028895;28;20194;-54
2022/12/12 09:58:30;;;;;;;52.80;24.80;;;-0.50;99.90;;;;;;5045013;28;20041;-57
2022/12/12 10:01:20;;;;;;;52.10;23.05;;;-0.40;99.90;;;;;;5024404;28;20052;-61
2022/12/12 10:04:14;;;;;;;49.38;23.55;;;-0.30;99.90;;;;;;5044587;28;20036;-61
2022/12/12 10:06:49;;;;;;;49.55;22.90;;;-0.20;99.90;;;;;;5004523;28;20462;-61
2022/12/12 10:09:33;;;;;;;52.95;23.00;;;-0.20;99.90;;;;;;5027411;28;20134;-65
2022/12/12 10:12:12;;;;;;;51.05;22.23;;;-0.20;99.90;;;;;;5044201;28;20123;-63
2022/12/12 10:14:46;;;;;;;51.60;24.98;;;-0.10;99.90;;;;;;5027101;28;20049;-64
2022/12/12 10:17:19;;;;;;;59.97;25.13;;;-0.10;99.90;;;;;;5045645;28;20115;-55
2022/12/12 10:19:52;;;;;;;;;;;-0.10;99.90;;;;;;5045415;28;20091;-57
2022/12/12 10:22:44;;;;;;;50.20;21.52;;;0.00;99.90;;;;;;5045137;28;19921;-58
2022/12/12 10:25:23;;;;;;;53.17;25.45;;;0.00;99.90;;;;;;5045096;28;20044;-57
2022/12/12 10:28:07;;;;;;;56.00;23.15;;;0.00;99.90;;;;;;5043289;28;20051;-56
2022/12/12 10:30:41;;;;;;;55.72;23.50;;;1.70;99.90;;;;;;5045685;28;20114;-58
2022/12/12 10:33:13;;;;;;;48.65;24.17;;;0.00;99.90;;;;;;5043387;28;20049;-57
2022/12/12 10:36:02;;;;;;;49.78;24.00;;;0.10;99.90;;;;;;5026811;28;20036;-54
2022/12/12 10:38:51;;;;;;;53.65;24.15;;;0.10;99.90;;;;;;5043086;28;20208;-56
2022/12/12 10:41:41;;;;;;;51.65;23.52;;;3.30;99.90;;;;;;5026804;28;20159;-63
2022/12/12 10:44:24;;;;;;;47.97;23.98;;;0.20;99.90;;;;;;5047545;28;20045;-63
2022/12/12 10:47:04;;;;;;;50.63;23.40;;;0.20;99.90;;;;;;5017242;28;20574;-62
2022/12/12 10:49:30;;;;;;;52.15;24.25;;;0.20;99.90;;;;;;5010702;28;20546;-60
2022/12/12 10:51:59;;;;;;;47.75;23.58;;;0.20;99.90;;;;;;5044503;28;20040;-61
2022/12/12 10:54:27;;;;;;;52.97;25.23;;;0.20;99.90;;;;;;5044588;28;20506;-62
2022/12/12 10:57:12;;;;;;;49.40;23.23;;;0.20;99.90;;;;;;5027160;28;20041;-58
2022/12/12 10:59:50;;;;;;;49.35;24.10;;;0.30;99.90;;;;;;5047008;28;20060;-59
2022/12/12 11:02:39;;;;;;;50.72;24.60;;;0.30;99.90;;;;;;5046125;28;20041;-57
2022/12/12 11:05:05;;;;;;;52.30;23.25;;;0.30;99.90;;;;;;5038529;28;20049;-57
2022/12/12 11:07:39;;;;;;;51.50;23.98;;;0.30;99.90;;;;;;5045063;28;20063;-57
2022/12/12 11:10:33;;;;;;;47.63;23.05;;;0.20;99.90;;;;;;5045122;28;20049;-57
2022/12/12 11:13:11;;;;;;;48.50;23.00;;;0.30;99.90;;;;;;5043528;28;20067;-58
2022/12/12 11:15:43;;;;;;;47.47;24.88;;;0.20;99.90;;;;;;5044461;28;20059;-57
2022/12/12 11:18:17;;;;;;;52.00;24.83;;;0.00;99.90;;;;;;5044929;28;20052;-57
2022/12/12 11:21:05;;;;;;;49.70;24.33;;;0.30;99.90;;;;;;5046529;28;20045;-57
2022/12/12 11:23:32;;;;;;;50.67;24.67;;;0.30;99.90;;;;;;5046039;28;20744;-57
2022/12/12 11:26:25;;;;;;;49.13;23.60;;;0.30;99.90;;;;;;5043657;28;20080;-57
2022/12/12 11:28:59;;;;;;;48.88;22.55;;;0.30;99.90;;;;;;5043340;28;20136;-57
2022/12/12 11:31:28;;;;;;;42.50;23.00;;;0.80;99.90;;;;;;5046043;28;20179;-57
2022/12/12 11:34:00;;;;;;;47.20;22.52;;;0.30;99.90;;;;;;5043630;28;20095;-56
2022/12/12 11:36:44;;;;;;;49.17;22.90;;;0.30;99.90;;;;;;5043860;28;20189;-57
2022/12/12 11:39:29;;;;;;;43.88;21.55;;;0.40;99.90;;;;;;5043820;28;20077;-58
2022/12/12 11:41:57;;;;;;;41.72;21.20;;;0.40;99.90;;;;;;5044048;28;20053;-57
2022/12/12 11:44:26;;;;;;;49.47;23.42;;;0.40;99.90;;;;;;5043954;28;20049;-60
2022/12/12 11:46:52;;;;;;;45.10;22.42;;;0.40;99.90;;;;;;5043576;28;20372;-57
2022/12/12 11:49:19;;;;;;;45.58;24.20;;;0.40;99.90;;;;;;5043343;28;20047;-57
2022/12/12 11:51:45;;;;;;;45.03;21.38;;;0.40;99.90;;;;;;5043995;28;20122;-58
2022/12/12 11:54:11;;;;;;;42.13;21.20;;;0.30;99.90;;;;;;5043782;28;20048;-58
2022/12/12 11:56:57;;;;;;;39.75;20.58;;;0.80;99.90;;;;;;5033745;28;20398;-56
2022/12/12 11:59:53;;;;;;;44.65;21.70;;;0.50;99.90;;;;;;5043369;28;20122;-57
2022/12/12 12:02:30;;;;;;;42.55;21.48;;;0.40;99.90;;;;;;5043647;28;20040;-58
2022/12/12 12:05:11;;;;;;;38.88;19.73;;;0.40;99.90;;;;;;5043770;28;20048;-58
2022/12/12 12:08:14;;;;;;;42.50;20.10;;;0.40;99.90;;;;;;5025310;28;20394;-57
2022/12/12 12:10:45;;;;;;;40.42;20.10;;;0.40;99.90;;;;;;5043341;28;20040;-57
2022/12/12 12:13:39;;;;;;;40.88;19.88;;;0.80;99.90;;;;;;5043748;28;20053;-65
2022/12/12 12:16:30;;;;;;;38.88;19.40;;;0.30;99.90;;;;;;5045199;28;20041;-61
2022/12/12 12:19:13;;;;;;;38.97;18.02;;;0.20;99.90;;;;;;5029413;28;20053;-65
2022/12/12 12:21:50;;;;;;;;;;;0.10;99.90;;;;;;5030910;28;20099;-61
2022/12/12 12:24:53;;;;;;;40.10;19.05;;;0.00;99.90;;;;;;5062699;28;19920;-57
2022/12/12 12:27:31;;;;;;;36.05;18.25;;;0.00;99.90;;;;;;5028560;28;20055;-57
2022/12/12 12:30:20;;;;;;;38.75;17.65;;;0.00;99.90;;;;;;5029735;28;20154;-58
2022/12/12 12:32:45;;;;;;;38.05;18.90;;;0.00;99.90;;;;;;5047920;28;20068;-58
2022/12/12 12:35:23;;;;;;;34.38;17.40;;;0.00;99.90;;;;;;5046715;28;20545;-58
2022/12/12 12:38:32;;;;;;;33.42;17.70;;;0.10;99.90;;;;;;5029029;28;20037;-55
2022/12/12 12:41:21;;;;;;;34.38;17.80;;;0.10;99.90;;;;;;5047338;28;20050;-56
2022/12/12 12:44:15;;;;;;;36.60;16.73;;;0.20;99.90;;;;;;5020380;28;20114;-55
2022/12/12 12:46:50;;;;;;;34.92;17.85;;;0.20;99.90;;;;;;5049893;28;20061;-57
2022/12/12 12:49:33;;;;;;;35.97;16.60;;;0.20;99.90;;;;;;5048186;28;20048;-53
2022/12/12 12:52:13;;;;;;;33.35;16.85;;;0.20;99.90;;;;;;5047015;28;20649;-53
2022/12/12 12:54:41;;;;;;;31.25;16.10;;;0.20;99.90;;;;;;5046925;28;20041;-54
2022/12/12 12:57:15;;;;;;;27.77;15.52;;;0.60;99.90;;;;;;5046311;28;20043;-55
2022/12/12 12:59:45;;;;;;;28.70;14.68;;;0.20;99.90;;;;;;5048697;28;20854;-56
2022/12/12 13:02:50;;;;;;;31.45;16.27;;;0.20;99.90;;;;;;5066135;28;20486;-55
2022/12/12 13:05:45;;;;;;;27.05;15.77;;;0.20;99.90;;;;;;5081067;28;20087;-49
2022/12/12 13:08:42;;;;;;;25.98;14.73;;;0.10;99.90;;;;;;5066774;28;20127;-50
2022/12/12 13:11:16;;;;;;;29.23;15.13;;;0.10;99.90;;;;;;5082243;28;20049;-53